Albert, New Mexico
Current Conditions -  °F | °C
As of 4:53 AM on Thursday 23 Oct 2014 (Local Time) from KTCC Reporting Station
Clear Clear  
Wind Chill: 55°   Ceiling: Unl
Heat Index: 55°   Visibility: 10mi
Dew Point: 51°   Wind: 6mph
Humidity: 86%   Direction: 260°W
Pressure: 30.1"   Gusts: NA
Location:  35.7181°N, 103.591°W
Report Text: KTCC 231053Z AUTO 26005KT 10SM CLR 13/11 A3010 RMK AO2 SLP152 T01280106
Loading
Personal Weather Stations






























Interactive Weather Map New forecast layout! Learn more

10-Day Weather Forecast

Advertisements
Track Severe Weather on mobile